sensor_id;sensor_type;location;lat;lon;timestamp;P1;durP1;ratioP1;P2;durP2;ratioP2
39078;SDS011;24829;49.208;12.080;2022-11-20T00:01:07;38.85;;;19.67;;
39078;SDS011;24829;49.208;12.080;2022-11-20T00:03:34;38.80;;;18.60;;
39078;SDS011;24829;49.208;12.080;2022-11-20T00:06:03;35.67;;;19.10;;
39078;SDS011;24829;49.208;12.080;2022-11-20T00:08:30;36.78;;;19.20;;
39078;SDS011;24829;49.208;12.080;2022-11-20T00:10:56;42.53;;;19.90;;
39078;SDS011;24829;49.208;12.080;2022-11-20T00:13:22;34.20;;;19.10;;
39078;SDS011;24829;49.208;12.080;2022-11-20T00:15:47;36.75;;;17.60;;
39078;SDS011;24829;49.208;12.080;2022-11-20T00:18:13;36.67;;;19.45;;
39078;SDS011;24829;49.208;12.080;2022-11-20T00:20:39;36.83;;;18.27;;
39078;SDS011;24829;49.208;12.080;2022-11-20T00:23:05;36.60;;;18.77;;
39078;SDS011;24829;49.208;12.080;2022-11-20T00:25:33;37.20;;;19.05;;
39078;SDS011;24829;49.208;12.080;2022-11-20T00:27:59;42.78;;;19.30;;
39078;SDS011;24829;49.208;12.080;2022-11-20T00:30:25;32.78;;;17.77;;
39078;SDS011;24829;49.208;12.080;2022-11-20T00:32:50;36.47;;;17.98;;
39078;SDS011;24829;49.208;12.080;2022-11-20T00:35:16;40.75;;;19.90;;
39078;SDS011;24829;49.208;12.080;2022-11-20T00:37:41;44.13;;;21.50;;
39078;SDS011;24829;49.208;12.080;2022-11-20T00:40:07;41.72;;;20.98;;
39078;SDS011;24829;49.208;12.080;2022-11-20T00:42:33;37.65;;;18.80;;
39078;SDS011;24829;49.208;12.080;2022-11-20T00:44:58;43.95;;;21.40;;
39078;SDS011;24829;49.208;12.080;2022-11-20T00:47:24;41.13;;;20.98;;
39078;SDS011;24829;49.208;12.080;2022-11-20T00:49:50;37.17;;;18.25;;
39078;SDS011;24829;49.208;12.080;2022-11-20T00:52:15;41.80;;;22.05;;
39078;SDS011;24829;49.208;12.080;2022-11-20T00:54:41;43.75;;;20.70;;
39078;SDS011;24829;49.208;12.080;2022-11-20T00:57:06;36.95;;;19.55;;
39078;SDS011;24829;49.208;12.080;2022-11-20T00:59:32;41.28;;;19.13;;
39078;SDS011;24829;49.208;12.080;2022-11-20T01:01:57;36.53;;;18.92;;
39078;SDS011;24829;49.208;12.080;2022-11-20T01:04:23;41.42;;;20.70;;
39078;SDS011;24829;49.208;12.080;2022-11-20T01:06:48;43.33;;;22.77;;
39078;SDS011;24829;49.208;12.080;2022-11-20T01:09:14;44.78;;;22.27;;
39078;SDS011;24829;49.208;12.080;2022-11-20T01:11:41;41.50;;;21.20;;
39078;SDS011;24829;49.208;12.080;2022-11-20T01:14:12;40.47;;;21.85;;
39078;SDS011;24829;49.208;12.080;2022-11-20T01:16:40;44.72;;;20.35;;
39078;SDS011;24829;49.208;12.080;2022-11-20T01:19:15;46.03;;;23.27;;
39078;SDS011;24829;49.208;12.080;2022-11-20T01:21:44;54.70;;;26.27;;
39078;SDS011;24829;49.208;12.080;2022-11-20T01:24:12;45.50;;;22.23;;
39078;SDS011;24829;49.208;12.080;2022-11-20T01:26:39;42.30;;;21.50;;
39078;SDS011;24829;49.208;12.080;2022-11-20T01:29:08;45.90;;;21.73;;
39078;SDS011;24829;49.208;12.080;2022-11-20T01:31:41;54.15;;;27.13;;
39078;SDS011;24829;49.208;12.080;2022-11-20T01:34:15;43.13;;;21.60;;
39078;SDS011;24829;49.208;12.080;2022-11-20T01:36:42;45.38;;;22.52;;
39078;SDS011;24829;49.208;12.080;2022-11-20T01:39:13;43.90;;;22.83;;
39078;SDS011;24829;49.208;12.080;2022-11-20T01:41:41;42.10;;;21.38;;
39078;SDS011;24829;49.208;12.080;2022-11-20T01:47:15;40.80;;;19.38;;
39078;SDS011;24829;49.208;12.080;2022-11-20T01:50:08;44.67;;;22.52;;
39078;SDS011;24829;49.208;12.080;2022-11-20T01:52:49;41.80;;;22.70;;
39078;SDS011;24829;49.208;12.080;2022-11-20T01:55:21;39.92;;;19.85;;
39078;SDS011;24829;49.208;12.080;2022-11-20T01:57:50;48.15;;;22.23;;
39078;SDS011;24829;49.208;12.080;2022-11-20T02:00:17;44.33;;;21.00;;
39078;SDS011;24829;49.208;12.080;2022-11-20T02:02:46;44.92;;;22.67;;
39078;SDS011;24829;49.208;12.080;2022-11-20T02:05:18;47.58;;;26.10;;
39078;SDS011;24829;49.208;12.080;2022-11-20T02:07:45;55.47;;;26.50;;
39078;SDS011;24829;49.208;12.080;2022-11-20T02:10:12;48.28;;;23.63;;
39078;SDS011;24829;49.208;12.080;2022-11-20T02:12:37;45.45;;;24.13;;
39078;SDS011;24829;49.208;12.080;2022-11-20T02:15:22;44.45;;;22.23;;
39078;SDS011;24829;49.208;12.080;2022-11-20T02:17:47;41.20;;;19.83;;
39078;SDS011;24829;49.208;12.080;2022-11-20T02:20:13;46.78;;;22.77;;
39078;SDS011;24829;49.208;12.080;2022-11-20T02:22:42;75.70;;;39.40;;
39078;SDS011;24829;49.208;12.080;2022-11-20T02:25:21;73.18;;;37.28;;
39078;SDS011;24829;49.208;12.080;2022-11-20T02:27:49;58.38;;;31.20;;
39078;SDS011;24829;49.208;12.080;2022-11-20T02:30:16;51.30;;;23.75;;
39078;SDS011;24829;49.208;12.080;2022-11-20T02:32:41;48.10;;;24.40;;
39078;SDS011;24829;49.208;12.080;2022-11-20T02:37:48;41.97;;;21.88;;
39078;SDS011;24829;49.208;12.080;2022-11-20T02:40:17;44.08;;;21.40;;
39078;SDS011;24829;49.208;12.080;2022-11-20T02:42:43;41.83;;;20.42;;
39078;SDS011;24829;49.208;12.080;2022-11-20T02:45:09;39.55;;;20.63;;
39078;SDS011;24829;49.208;12.080;2022-11-20T02:47:35;40.38;;;20.35;;
39078;SDS011;24829;49.208;12.080;2022-11-20T02:50:01;43.63;;;20.55;;
39078;SDS011;24829;49.208;12.080;2022-11-20T02:52:28;41.90;;;21.45;;
39078;SDS011;24829;49.208;12.080;2022-11-20T02:54:53;42.78;;;21.17;;
39078;SDS011;24829;49.208;12.080;2022-11-20T02:57:19;43.47;;;21.58;;
39078;SDS011;24829;49.208;12.080;2022-11-20T02:59:44;44.70;;;21.58;;
39078;SDS011;24829;49.208;12.080;2022-11-20T03:02:10;50.13;;;23.65;;
39078;SDS011;24829;49.208;12.080;2022-11-20T03:04:36;66.82;;;30.48;;
39078;SDS011;24829;49.208;12.080;2022-11-20T03:07:01;86.25;;;38.25;;
39078;SDS011;24829;49.208;12.080;2022-11-20T03:09:27;72.95;;;32.78;;
39078;SDS011;24829;49.208;12.080;2022-11-20T03:11:53;50.90;;;23.33;;
39078;SDS011;24829;49.208;12.080;2022-11-20T03:14:19;48.72;;;22.92;;
39078;SDS011;24829;49.208;12.080;2022-11-20T03:16:44;50.70;;;23.67;;
39078;SDS011;24829;49.208;12.080;2022-11-20T03:19:10;46.58;;;21.95;;
39078;SDS011;24829;49.208;12.080;2022-11-20T03:21:37;50.50;;;21.67;;
39078;SDS011;24829;49.208;12.080;2022-11-20T03:24:02;51.13;;;23.10;;
39078;SDS011;24829;49.208;12.080;2022-11-20T03:26:28;50.25;;;24.90;;
39078;SDS011;24829;49.208;12.080;2022-11-20T03:28:55;48.35;;;23.15;;
39078;SDS011;24829;49.208;12.080;2022-11-20T03:31:30;55.03;;;24.85;;
39078;SDS011;24829;49.208;12.080;2022-11-20T03:34:05;60.15;;;25.15;;
39078;SDS011;24829;49.208;12.080;2022-11-20T03:36:32;50.60;;;23.08;;
39078;SDS011;24829;49.208;12.080;2022-11-20T03:38:58;51.00;;;23.45;;
39078;SDS011;24829;49.208;12.080;2022-11-20T03:41:31;47.63;;;22.48;;
39078;SDS011;24829;49.208;12.080;2022-11-20T03:44:01;50.83;;;22.30;;
39078;SDS011;24829;49.208;12.080;2022-11-20T03:46:28;50.95;;;25.15;;
39078;SDS011;24829;49.208;12.080;2022-11-20T03:48:54;44.65;;;21.67;;
39078;SDS011;24829;49.208;12.080;2022-11-20T03:51:24;56.08;;;22.73;;
39078;SDS011;24829;49.208;12.080;2022-11-20T03:54:02;47.97;;;22.63;;
39078;SDS011;24829;49.208;12.080;2022-11-20T03:56:30;45.72;;;21.98;;
39078;SDS011;24829;49.208;12.080;2022-11-20T03:58:57;47.65;;;22.65;;
39078;SDS011;24829;49.208;12.080;2022-11-20T04:01:24;46.60;;;24.20;;
39078;SDS011;24829;49.208;12.080;2022-11-20T04:03:52;45.38;;;23.92;;
39078;SDS011;24829;49.208;12.080;2022-11-20T04:06:22;48.92;;;24.13;;
39078;SDS011;24829;49.208;12.080;2022-11-20T04:08:48;53.28;;;24.60;;
39078;SDS011;24829;49.208;12.080;2022-11-20T04:13:41;49.10;;;22.63;;
39078;SDS011;24829;49.208;12.080;2022-11-20T04:16:10;46.25;;;21.02;;
39078;SDS011;24829;49.208;12.080;2022-11-20T04:18:36;46.92;;;22.70;;
39078;SDS011;24829;49.208;12.080;2022-11-20T04:21:01;44.83;;;21.85;;
39078;SDS011;24829;49.208;12.080;2022-11-20T04:23:28;44.78;;;21.58;;
39078;SDS011;24829;49.208;12.080;2022-11-20T04:25:53;40.17;;;20.38;;
39078;SDS011;24829;49.208;12.080;2022-11-20T04:28:19;43.95;;;21.75;;
39078;SDS011;24829;49.208;12.080;2022-11-20T04:30:45;40.70;;;19.95;;
39078;SDS011;24829;49.208;12.080;2022-11-20T04:33:11;40.55;;;19.73;;
39078;SDS011;24829;49.208;12.080;2022-11-20T04:35:37;39.58;;;21.60;;
39078;SDS011;24829;49.208;12.080;2022-11-20T04:38:02;39.63;;;19.25;;
39078;SDS011;24829;49.208;12.080;2022-11-20T04:40:29;38.63;;;18.65;;
39078;SDS011;24829;49.208;12.080;2022-11-20T04:42:55;36.05;;;18.95;;
39078;SDS011;24829;49.208;12.080;2022-11-20T04:45:21;41.53;;;20.83;;
39078;SDS011;24829;49.208;12.080;2022-11-20T04:47:47;41.03;;;20.75;;
39078;SDS011;24829;49.208;12.080;2022-11-20T04:50:13;41.28;;;20.55;;
39078;SDS011;24829;49.208;12.080;2022-11-20T04:52:38;42.03;;;20.67;;
39078;SDS011;24829;49.208;12.080;2022-11-20T04:55:04;45.47;;;21.60;;
39078;SDS011;24829;49.208;12.080;2022-11-20T04:57:30;44.95;;;21.08;;
39078;SDS011;24829;49.208;12.080;2022-11-20T04:59:56;47.92;;;21.50;;
39078;SDS011;24829;49.208;12.080;2022-11-20T05:02:21;43.33;;;20.77;;
39078;SDS011;24829;49.208;12.080;2022-11-20T05:04:47;42.47;;;20.13;;
39078;SDS011;24829;49.208;12.080;2022-11-20T05:07:13;45.85;;;21.48;;
39078;SDS011;24829;49.208;12.080;2022-11-20T05:09:39;42.55;;;21.00;;
39078;SDS011;24829;49.208;12.080;2022-11-20T05:12:06;39.60;;;21.13;;
39078;SDS011;24829;49.208;12.080;2022-11-20T05:14:32;46.33;;;20.27;;
39078;SDS011;24829;49.208;12.080;2022-11-20T05:16:58;38.22;;;20.02;;
39078;SDS011;24829;49.208;12.080;2022-11-20T05:19:24;41.13;;;21.48;;
39078;SDS011;24829;49.208;12.080;2022-11-20T05:21:49;45.90;;;21.30;;
39078;SDS011;24829;49.208;12.080;2022-11-20T05:24:15;44.50;;;22.75;;
39078;SDS011;24829;49.208;12.080;2022-11-20T05:26:40;44.13;;;21.95;;
39078;SDS011;24829;49.208;12.080;2022-11-20T05:29:06;41.17;;;19.52;;
39078;SDS011;24829;49.208;12.080;2022-11-20T05:31:34;42.83;;;21.67;;
39078;SDS011;24829;49.208;12.080;2022-11-20T05:34:01;50.70;;;23.67;;
39078;SDS011;24829;49.208;12.080;2022-11-20T05:36:26;51.50;;;23.00;;
39078;SDS011;24829;49.208;12.080;2022-11-20T05:38:52;52.72;;;24.98;;
39078;SDS011;24829;49.208;12.080;2022-11-20T05:41:18;53.25;;;23.83;;
39078;SDS011;24829;49.208;12.080;2022-11-20T05:43:45;50.85;;;23.35;;
39078;SDS011;24829;49.208;12.080;2022-11-20T05:46:12;55.33;;;25.77;;
39078;SDS011;24829;49.208;12.080;2022-11-20T05:48:40;56.60;;;26.38;;
39078;SDS011;24829;49.208;12.080;2022-11-20T05:51:07;52.83;;;24.05;;
39078;SDS011;24829;49.208;12.080;2022-11-20T05:53:35;57.35;;;25.95;;
39078;SDS011;24829;49.208;12.080;2022-11-20T05:56:02;58.58;;;25.85;;
39078;SDS011;24829;49.208;12.080;2022-11-20T05:58:30;57.00;;;25.02;;
39078;SDS011;24829;49.208;12.080;2022-11-20T06:03:44;50.60;;;23.90;;
39078;SDS011;24829;49.208;12.080;2022-11-20T06:06:12;48.20;;;22.55;;
39078;SDS011;24829;49.208;12.080;2022-11-20T06:08:39;49.95;;;23.73;;
39078;SDS011;24829;49.208;12.080;2022-11-20T06:11:06;49.78;;;23.17;;
39078;SDS011;24829;49.208;12.080;2022-11-20T06:13:33;45.95;;;22.08;;
39078;SDS011;24829;49.208;12.080;2022-11-20T06:15:59;50.33;;;23.00;;
39078;SDS011;24829;49.208;12.080;2022-11-20T06:18:25;51.58;;;24.58;;
39078;SDS011;24829;49.208;12.080;2022-11-20T06:21:01;50.55;;;24.25;;
39078;SDS011;24829;49.208;12.080;2022-11-20T06:23:29;55.33;;;23.38;;
39078;SDS011;24829;49.208;12.080;2022-11-20T06:25:56;47.50;;;21.75;;
39078;SDS011;24829;49.208;12.080;2022-11-20T06:28:25;49.72;;;23.58;;
39078;SDS011;24829;49.208;12.080;2022-11-20T06:30:51;58.13;;;25.65;;
39078;SDS011;24829;49.208;12.080;2022-11-20T06:33:16;55.35;;;24.25;;
39078;SDS011;24829;49.208;12.080;2022-11-20T06:35:42;61.25;;;26.02;;
39078;SDS011;24829;49.208;12.080;2022-11-20T06:38:07;58.95;;;26.67;;
39078;SDS011;24829;49.208;12.080;2022-11-20T06:40:33;61.22;;;27.08;;
39078;SDS011;24829;49.208;12.080;2022-11-20T06:42:59;55.95;;;25.85;;
39078;SDS011;24829;49.208;12.080;2022-11-20T06:45:24;60.10;;;26.80;;
39078;SDS011;24829;49.208;12.080;2022-11-20T06:47:50;57.22;;;25.17;;
39078;SDS011;24829;49.208;12.080;2022-11-20T06:50:15;57.75;;;25.50;;
39078;SDS011;24829;49.208;12.080;2022-11-20T06:52:41;63.08;;;25.95;;
39078;SDS011;24829;49.208;12.080;2022-11-20T06:55:07;60.85;;;26.42;;
39078;SDS011;24829;49.208;12.080;2022-11-20T06:57:33;58.50;;;26.58;;
39078;SDS011;24829;49.208;12.080;2022-11-20T06:59:58;55.03;;;23.90;;
39078;SDS011;24829;49.208;12.080;2022-11-20T07:02:24;56.63;;;26.08;;
39078;SDS011;24829;49.208;12.080;2022-11-20T07:04:49;56.17;;;25.02;;
39078;SDS011;24829;49.208;12.080;2022-11-20T07:07:15;60.47;;;26.20;;
39078;SDS011;24829;49.208;12.080;2022-11-20T07:09:41;64.05;;;26.20;;
39078;SDS011;24829;49.208;12.080;2022-11-20T07:12:06;66.65;;;27.00;;
39078;SDS011;24829;49.208;12.080;2022-11-20T07:14:32;65.75;;;27.38;;
39078;SDS011;24829;49.208;12.080;2022-11-20T07:16:57;63.35;;;26.15;;
39078;SDS011;24829;49.208;12.080;2022-11-20T07:19:23;58.53;;;24.58;;
39078;SDS011;24829;49.208;12.080;2022-11-20T07:21:49;53.50;;;24.23;;
39078;SDS011;24829;49.208;12.080;2022-11-20T07:24:14;51.13;;;23.60;;
39078;SDS011;24829;49.208;12.080;2022-11-20T07:26:40;50.65;;;22.52;;
39078;SDS011;24829;49.208;12.080;2022-11-20T07:29:05;52.45;;;24.83;;
39078;SDS011;24829;49.208;12.080;2022-11-20T07:31:31;48.10;;;23.13;;
39078;SDS011;24829;49.208;12.080;2022-11-20T07:33:56;47.90;;;22.38;;
39078;SDS011;24829;49.208;12.080;2022-11-20T07:36:22;47.63;;;22.73;;
39078;SDS011;24829;49.208;12.080;2022-11-20T07:38:47;44.53;;;20.83;;
39078;SDS011;24829;49.208;12.080;2022-11-20T07:41:13;51.78;;;22.02;;
39078;SDS011;24829;49.208;12.080;2022-11-20T07:43:40;51.88;;;21.73;;
39078;SDS011;24829;49.208;12.080;2022-11-20T07:46:05;46.00;;;22.85;;
39078;SDS011;24829;49.208;12.080;2022-11-20T07:48:31;46.22;;;22.45;;
39078;SDS011;24829;49.208;12.080;2022-11-20T07:50:57;44.58;;;21.15;;
39078;SDS011;24829;49.208;12.080;2022-11-20T07:53:23;48.88;;;21.98;;
39078;SDS011;24829;49.208;12.080;2022-11-20T07:55:49;43.08;;;22.20;;
39078;SDS011;24829;49.208;12.080;2022-11-20T07:58:17;49.97;;;23.17;;
39078;SDS011;24829;49.208;12.080;2022-11-20T08:00:43;46.92;;;21.08;;
39078;SDS011;24829;49.208;12.080;2022-11-20T08:03:09;52.20;;;23.55;;
39078;SDS011;24829;49.208;12.080;2022-11-20T08:05:34;51.50;;;22.75;;
39078;SDS011;24829;49.208;12.080;2022-11-20T08:08:00;59.97;;;26.27;;
39078;SDS011;24829;49.208;12.080;2022-11-20T08:10:25;53.50;;;23.58;;
39078;SDS011;24829;49.208;12.080;2022-11-20T08:12:52;53.55;;;24.10;;
39078;SDS011;24829;49.208;12.080;2022-11-20T08:15:36;60.10;;;24.42;;
39078;SDS011;24829;49.208;12.080;2022-11-20T08:18:04;61.38;;;24.27;;
39078;SDS011;24829;49.208;12.080;2022-11-20T08:20:31;58.63;;;24.67;;
39078;SDS011;24829;49.208;12.080;2022-11-20T08:23:01;58.20;;;25.05;;
39078;SDS011;24829;49.208;12.080;2022-11-20T08:25:30;73.70;;;28.70;;
39078;SDS011;24829;49.208;12.080;2022-11-20T08:27:57;62.60;;;26.08;;
39078;SDS011;24829;49.208;12.080;2022-11-20T08:30:23;59.83;;;25.60;;
39078;SDS011;24829;49.208;12.080;2022-11-20T08:32:49;61.22;;;24.27;;
39078;SDS011;24829;49.208;12.080;2022-11-20T08:35:15;66.32;;;27.60;;
39078;SDS011;24829;49.208;12.080;2022-11-20T08:37:40;52.35;;;23.42;;
39078;SDS011;24829;49.208;12.080;2022-11-20T08:40:08;54.33;;;25.52;;
39078;SDS011;24829;49.208;12.080;2022-11-20T08:42:34;56.22;;;24.63;;
39078;SDS011;24829;49.208;12.080;2022-11-20T08:45:00;65.47;;;26.63;;
39078;SDS011;24829;49.208;12.080;2022-11-20T08:47:26;65.88;;;28.88;;
39078;SDS011;24829;49.208;12.080;2022-11-20T08:49:51;63.08;;;28.27;;
39078;SDS011;24829;49.208;12.080;2022-11-20T08:52:17;60.65;;;27.73;;
39078;SDS011;24829;49.208;12.080;2022-11-20T08:54:42;56.42;;;26.80;;
39078;SDS011;24829;49.208;12.080;2022-11-20T08:57:08;61.78;;;28.20;;
39078;SDS011;24829;49.208;12.080;2022-11-20T08:59:33;58.72;;;26.13;;
39078;SDS011;24829;49.208;12.080;2022-11-20T09:01:59;52.92;;;26.83;;
39078;SDS011;24829;49.208;12.080;2022-11-20T09:04:24;59.03;;;27.13;;
39078;SDS011;24829;49.208;12.080;2022-11-20T09:06:50;66.65;;;28.35;;
39078;SDS011;24829;49.208;12.080;2022-11-20T09:09:16;63.08;;;26.65;;
39078;SDS011;24829;49.208;12.080;2022-11-20T09:11:43;61.50;;;27.95;;
39078;SDS011;24829;49.208;12.080;2022-11-20T09:14:09;63.38;;;27.55;;
39078;SDS011;24829;49.208;12.080;2022-11-20T09:16:34;66.70;;;27.98;;
39078;SDS011;24829;49.208;12.080;2022-11-20T09:19:00;61.40;;;27.25;;
39078;SDS011;24829;49.208;12.080;2022-11-20T09:21:26;66.38;;;28.30;;
39078;SDS011;24829;49.208;12.080;2022-11-20T09:23:51;67.78;;;29.40;;
39078;SDS011;24829;49.208;12.080;2022-11-20T09:26:17;63.65;;;27.05;;
39078;SDS011;24829;49.208;12.080;2022-11-20T09:28:42;63.75;;;28.77;;
39078;SDS011;24829;49.208;12.080;2022-11-20T09:31:09;72.22;;;32.05;;
39078;SDS011;24829;49.208;12.080;2022-11-20T09:33:48;63.20;;;30.25;;
39078;SDS011;24829;49.208;12.080;2022-11-20T09:36:13;65.68;;;31.27;;
39078;SDS011;24829;49.208;12.080;2022-11-20T09:38:39;64.45;;;30.75;;
39078;SDS011;24829;49.208;12.080;2022-11-20T09:41:05;60.10;;;29.40;;
39078;SDS011;24829;49.208;12.080;2022-11-20T09:46:42;52.25;;;26.55;;
39078;SDS011;24829;49.208;12.080;2022-11-20T09:52:56;55.05;;;25.35;;
39078;SDS011;24829;49.208;12.080;2022-11-20T09:55:24;55.60;;;26.25;;
39078;SDS011;24829;49.208;12.080;2022-11-20T09:57:52;58.95;;;25.60;;
39078;SDS011;24829;49.208;12.080;2022-11-20T10:00:18;55.75;;;26.65;;
39078;SDS011;24829;49.208;12.080;2022-11-20T10:08:21;62.05;;;28.88;;
39078;SDS011;24829;49.208;12.080;2022-11-20T10:10:51;60.35;;;29.48;;
39078;SDS011;24829;49.208;12.080;2022-11-20T10:18:38;62.42;;;26.80;;
39078;SDS011;24829;49.208;12.080;2022-11-20T10:29:41;48.40;;;22.92;;
39078;SDS011;24829;49.208;12.080;2022-11-20T10:32:11;46.55;;;23.83;;
39078;SDS011;24829;49.208;12.080;2022-11-20T10:34:49;43.42;;;22.00;;
39078;SDS011;24829;49.208;12.080;2022-11-20T10:37:23;36.65;;;18.15;;
39078;SDS011;24829;49.208;12.080;2022-11-20T10:39:53;37.67;;;19.83;;
39078;SDS011;24829;49.208;12.080;2022-11-20T10:42:27;40.20;;;20.17;;
39078;SDS011;24829;49.208;12.080;2022-11-20T10:44:58;43.13;;;20.00;;
39078;SDS011;24829;49.208;12.080;2022-11-20T10:47:46;37.13;;;18.27;;
39078;SDS011;24829;49.208;12.080;2022-11-20T10:50:14;44.60;;;19.38;;
39078;SDS011;24829;49.208;12.080;2022-11-20T10:55:30;40.83;;;19.13;;
39078;SDS011;24829;49.208;12.080;2022-11-20T11:01:14;35.00;;;17.48;;
39078;SDS011;24829;49.208;12.080;2022-11-20T11:03:42;33.30;;;16.02;;
39078;SDS011;24829;49.208;12.080;2022-11-20T11:09:16;32.58;;;16.33;;
39078;SDS011;24829;49.208;12.080;2022-11-20T11:11:46;29.80;;;15.55;;
39078;SDS011;24829;49.208;12.080;2022-11-20T11:14:13;27.45;;;15.15;;
39078;SDS011;24829;49.208;12.080;2022-11-20T11:16:49;27.75;;;15.57;;
39078;SDS011;24829;49.208;12.080;2022-11-20T11:19:20;30.88;;;15.50;;
39078;SDS011;24829;49.208;12.080;2022-11-20T11:21:50;30.38;;;15.98;;
39078;SDS011;24829;49.208;12.080;2022-11-20T11:24:28;26.33;;;15.07;;
39078;SDS011;24829;49.208;12.080;2022-11-20T11:26:56;27.63;;;15.25;;
39078;SDS011;24829;49.208;12.080;2022-11-20T11:29:31;31.70;;;16.17;;
39078;SDS011;24829;49.208;12.080;2022-11-20T11:32:08;30.25;;;14.60;;
39078;SDS011;24829;49.208;12.080;2022-11-20T11:34:37;25.55;;;13.40;;
39078;SDS011;24829;49.208;12.080;2022-11-20T11:37:03;28.48;;;13.63;;
39078;SDS011;24829;49.208;12.080;2022-11-20T11:39:35;28.73;;;13.82;;
39078;SDS011;24829;49.208;12.080;2022-11-20T11:42:05;26.83;;;13.98;;
39078;SDS011;24829;49.208;12.080;2022-11-20T11:44:35;24.20;;;13.48;;
39078;SDS011;24829;49.208;12.080;2022-11-20T11:47:24;26.60;;;12.70;;
39078;SDS011;24829;49.208;12.080;2022-11-20T11:55:20;20.75;;;11.63;;
39078;SDS011;24829;49.208;12.080;2022-11-20T12:00:39;18.45;;;10.80;;
39078;SDS011;24829;49.208;12.080;2022-11-20T12:03:18;21.88;;;10.82;;
39078;SDS011;24829;49.208;12.080;2022-11-20T12:05:49;22.25;;;11.13;;
39078;SDS011;24829;49.208;12.080;2022-11-20T12:08:23;18.13;;;10.88;;
39078;SDS011;24829;49.208;12.080;2022-11-20T12:11:17;15.57;;;10.00;;
39078;SDS011;24829;49.208;12.080;2022-11-20T12:13:56;16.92;;;9.95;;
39078;SDS011;24829;49.208;12.080;2022-11-20T12:16:28;15.40;;;9.88;;
39078;SDS011;24829;49.208;12.080;2022-11-20T12:18:59;17.73;;;9.57;;
39078;SDS011;24829;49.208;12.080;2022-11-20T12:21:34;16.58;;;10.30;;
39078;SDS011;24829;49.208;12.080;2022-11-20T12:24:39;15.88;;;9.10;;
39078;SDS011;24829;49.208;12.080;2022-11-20T12:45:05;10.20;;;7.00;;
39078;SDS011;24829;49.208;12.080;2022-11-20T12:56:49;8.43;;;5.88;;
39078;SDS011;24829;49.208;12.080;2022-11-20T13:02:33;12.27;;;7.38;;
39078;SDS011;24829;49.208;12.080;2022-11-20T13:05:16;9.23;;;5.03;;
39078;SDS011;24829;49.208;12.080;2022-11-20T13:07:50;5.32;;;2.33;;
39078;SDS011;24829;49.208;12.080;2022-11-20T13:10:20;3.00;;;1.58;;
39078;SDS011;24829;49.208;12.080;2022-11-20T13:18:40;4.25;;;2.40;;
39078;SDS011;24829;49.208;12.080;2022-11-20T13:21:18;3.65;;;1.70;;
39078;SDS011;24829;49.208;12.080;2022-11-20T13:23:45;1.88;;;1.20;;
39078;SDS011;24829;49.208;12.080;2022-11-20T13:26:22;1.70;;;1.20;;
39078;SDS011;24829;49.208;12.080;2022-11-20T13:28:59;1.80;;;0.90;;
39078;SDS011;24829;49.208;12.080;2022-11-20T13:31:33;3.97;;;1.80;;
39078;SDS011;24829;49.208;12.080;2022-11-20T13:34:01;2.33;;;1.50;;
39078;SDS011;24829;49.208;12.080;2022-11-20T13:36:29;3.42;;;1.60;;
39078;SDS011;24829;49.208;12.080;2022-11-20T13:38:57;1.13;;;0.77;;
39078;SDS011;24829;49.208;12.080;2022-11-20T13:41:33;1.50;;;1.02;;
39078;SDS011;24829;49.208;12.080;2022-11-20T13:49:09;1.83;;;1.00;;
39078;SDS011;24829;49.208;12.080;2022-11-20T13:51:42;1.60;;;1.00;;
39078;SDS011;24829;49.208;12.080;2022-11-20T13:57:04;2.25;;;1.33;;
39078;SDS011;24829;49.208;12.080;2022-11-20T14:02:21;2.35;;;1.17;;
39078;SDS011;24829;49.208;12.080;2022-11-20T14:04:51;2.83;;;1.50;;
39078;SDS011;24829;49.208;12.080;2022-11-20T14:07:20;3.85;;;1.88;;
39078;SDS011;24829;49.208;12.080;2022-11-20T14:09:55;3.50;;;1.50;;
39078;SDS011;24829;49.208;12.080;2022-11-20T14:12:23;6.78;;;2.13;;
39078;SDS011;24829;49.208;12.080;2022-11-20T14:14:56;3.28;;;1.80;;
39078;SDS011;24829;49.208;12.080;2022-11-20T14:17:22;4.88;;;1.60;;
39078;SDS011;24829;49.208;12.080;2022-11-20T14:19:58;3.42;;;2.00;;
39078;SDS011;24829;49.208;12.080;2022-11-20T14:22:27;4.93;;;3.25;;
39078;SDS011;24829;49.208;12.080;2022-11-20T14:25:03;6.57;;;3.78;;
39078;SDS011;24829;49.208;12.080;2022-11-20T14:27:29;6.63;;;2.60;;
39078;SDS011;24829;49.208;12.080;2022-11-20T14:30:00;4.82;;;3.05;;
39078;SDS011;24829;49.208;12.080;2022-11-20T14:32:27;3.05;;;2.20;;
39078;SDS011;24829;49.208;12.080;2022-11-20T14:35:02;2.40;;;1.73;;
39078;SDS011;24829;49.208;12.080;2022-11-20T14:37:33;2.85;;;1.73;;
39078;SDS011;24829;49.208;12.080;2022-11-20T14:40:02;2.92;;;1.73;;
39078;SDS011;24829;49.208;12.080;2022-11-20T14:42:29;3.97;;;2.38;;
39078;SDS011;24829;49.208;12.080;2022-11-20T14:44:56;4.35;;;1.90;;
39078;SDS011;24829;49.208;12.080;2022-11-20T14:47:25;3.78;;;2.17;;
39078;SDS011;24829;49.208;12.080;2022-11-20T14:49:52;5.38;;;2.88;;
39078;SDS011;24829;49.208;12.080;2022-11-20T14:52:21;3.65;;;2.17;;
39078;SDS011;24829;49.208;12.080;2022-11-20T14:54:55;3.55;;;2.05;;
39078;SDS011;24829;49.208;12.080;2022-11-20T15:00:04;11.63;;;5.80;;
39078;SDS011;24829;49.208;12.080;2022-11-20T15:02:31;10.27;;;7.07;;
39078;SDS011;24829;49.208;12.080;2022-11-20T15:04:58;6.88;;;4.07;;
39078;SDS011;24829;49.208;12.080;2022-11-20T15:10:30;7.45;;;3.65;;
39078;SDS011;24829;49.208;12.080;2022-11-20T15:12:59;6.43;;;3.97;;
39078;SDS011;24829;49.208;12.080;2022-11-20T15:15:35;6.53;;;3.65;;
39078;SDS011;24829;49.208;12.080;2022-11-20T15:18:14;5.35;;;3.10;;
39078;SDS011;24829;49.208;12.080;2022-11-20T15:20:42;5.15;;;3.13;;
39078;SDS011;24829;49.208;12.080;2022-11-20T15:23:10;5.00;;;2.97;;
39078;SDS011;24829;49.208;12.080;2022-11-20T15:25:37;5.25;;;2.83;;
39078;SDS011;24829;49.208;12.080;2022-11-20T15:28:04;3.97;;;2.47;;
39078;SDS011;24829;49.208;12.080;2022-11-20T15:30:46;6.63;;;2.60;;
39078;SDS011;24829;49.208;12.080;2022-11-20T15:33:13;3.42;;;1.80;;
39078;SDS011;24829;49.208;12.080;2022-11-20T15:35:39;3.75;;;2.20;;
39078;SDS011;24829;49.208;12.080;2022-11-20T15:38:05;3.30;;;1.92;;
39078;SDS011;24829;49.208;12.080;2022-11-20T15:40:31;2.88;;;1.48;;
39078;SDS011;24829;49.208;12.080;2022-11-20T15:42:57;3.03;;;1.85;;
39078;SDS011;24829;49.208;12.080;2022-11-20T15:45:29;3.38;;;1.80;;
39078;SDS011;24829;49.208;12.080;2022-11-20T15:47:58;6.13;;;3.22;;
39078;SDS011;24829;49.208;12.080;2022-11-20T15:50:30;8.07;;;3.08;;
39078;SDS011;24829;49.208;12.080;2022-11-20T15:53:01;4.88;;;2.90;;
39078;SDS011;24829;49.208;12.080;2022-11-20T15:55:26;5.85;;;3.42;;
39078;SDS011;24829;49.208;12.080;2022-11-20T15:57:52;8.02;;;4.20;;
39078;SDS011;24829;49.208;12.080;2022-11-20T16:00:17;5.90;;;3.15;;
39078;SDS011;24829;49.208;12.080;2022-11-20T16:02:43;4.68;;;2.95;;
39078;SDS011;24829;49.208;12.080;2022-11-20T16:05:10;5.07;;;2.78;;
39078;SDS011;24829;49.208;12.080;2022-11-20T16:07:38;4.45;;;2.45;;